Tropical Cyclones
[Index]
Main Index Home Page Stock Weather Photos Extreme Storms Discussion Storm News and Storm Chasing Reports Tropical Cyclones / Hurricanes / Typhoons Weather Data and Links Wild Fires / Bushfires Weather Observation Techniques Weather Picture Catalogue Tornado Pictures and Reports Stock Video Footage and DVDs for sale
Season 1964-1965 Tropical Cyclone IRIS Track Map
Season 1964-1965 Summaries: [BoM-AU] [JTWC-AU] [JTWC-SIO] [JTWC-SPAC] [JTWC-SH]
<<- Previous TC | JTWC 1964-1965 Season | Next TC ->>

click for intensity scale information  Lat/long Grid: Show Hide

 Date Labels: Show Hide

Joint Typhoon Warning Centre Cyclone Data

Name: IRIS
Number: 556 / 6519

17 Jan 1965 18:00 UTC to 28 Jan 1965 06:00 UTC

    date/time    lat    long     hPa   cat  kts
1965-01-17 18   16.5    53.6                              
1965-01-18 00   15.7    54.7                              
1965-01-18 06   15.2    55.2                              
1965-01-18 12   15.1    55.1                              
1965-01-18 18   15.0    55.0                              
1965-01-19 00   15.0    54.9                              
1965-01-19 06   15.0    54.6                              
1965-01-19 12   15.1    53.9                              
1965-01-19 18   15.3    53.2                              
1965-01-20 00   15.5    52.6                              
1965-01-20 06   15.9    52.0                              
1965-01-20 12   16.4    51.2                              
1965-01-20 18   17.0    50.3                              
1965-01-21 00   17.6    49.6                              
1965-01-21 06   18.1    49.1                              
1965-01-21 12   18.4    48.7                              
1965-01-21 18   18.7    48.4                              
1965-01-22 00   19.0    48.0                              
1965-01-22 06   19.3    47.6                              
1965-01-22 12   19.5    47.1                              
1965-01-22 18   19.8    46.5                              
1965-01-23 00   20.2    46.1                              
1965-01-23 06   20.8    46.0                              
1965-01-23 12   21.4    46.1                              
1965-01-23 18   22.0    46.3                              
1965-01-24 00   22.4    46.4                              
1965-01-24 06   22.7    46.5                              
1965-01-24 12   23.2    46.7                              
1965-01-24 18   23.7    46.9                              
1965-01-25 00   24.2    47.0                              
1965-01-25 06   24.8    47.0                              
1965-01-25 12   25.5    47.2                              
1965-01-25 18   26.3    47.4                              
1965-01-26 00   26.9    47.7                              
1965-01-26 06   27.6    48.2                              
1965-01-26 12   28.2    49.1                              
1965-01-26 18   28.9    50.0                              
1965-01-27 00   29.4    50.7                              
1965-01-27 06   29.8    51.5                              
1965-01-27 12   30.4    52.7                              
1965-01-27 18   31.0    54.0                              
1965-01-28 00   31.5    55.1                              
1965-01-28 06   31.9    56.0                              
Winds are 1-min average.

Tropical cyclone tracks developed by Michael Bath using data from the Joint Typhoon Warning Centre Best Tracks and Google Maps.


[Australian Severe Weather index] [Copyright Notice] [Email Contacts] [Search This Site] [Privacy Policy]
Document: tropical_cyclone_iris.htm Updated: 18 September 2016